Time;durP1;ratioP1;P1;durP2;ratioP2;P2;SDS_P1;SDS_P2;PMS_P1;PMS_P2;Temp;Humidity;BMP_temperature;BMP_pressure;BME280_temperature;BME280_humidity;BME280_pressure;Samples;Min_cycle;Max_cycle;Signal;HPM_P1;HPM_P2
2023/12/22 00:01:06;;;;;;;18.15;1.88;;;4.60;99.90;;;;;;5014498;28;20041;-63
2023/12/22 00:03:32;;;;;;;4.90;1.20;;;4.60;99.90;;;;;;5016074;28;20028;-63
2023/12/22 00:05:58;;;;;;;14.98;1.40;;;4.60;99.90;;;;;;5014798;28;20072;-63
2023/12/22 00:08:24;;;;;;;8.90;1.08;;;4.60;99.90;;;;;;5015673;28;20025;-63
2023/12/22 00:10:50;;;;;;;10.98;1.95;;;4.60;99.90;;;;;;5016525;28;20069;-62
2023/12/22 00:13:15;;;;;;;4.45;1.00;;;4.60;99.90;;;;;;5022234;28;20112;-63
2023/12/22 00:15:44;;;;;;;4.63;1.30;;;4.60;99.90;;;;;;5019718;28;20040;-63
2023/12/22 00:18:10;;;;;;;4.32;1.00;;;4.60;99.90;;;;;;5019661;28;20437;-64
2023/12/22 00:20:36;;;;;;;7.10;1.10;;;4.60;99.90;;;;;;5018358;28;20030;-64
2023/12/22 00:23:02;;;;;;;8.85;1.67;;;4.40;99.90;;;;;;5016874;28;20088;-62
2023/12/22 00:25:27;;;;;;;5.85;1.02;;;4.40;99.90;;;;;;5022013;28;20434;-61
2023/12/22 00:27:53;;;;;;;5.97;1.08;;;4.40;99.90;;;;;;5018047;28;20104;-63
2023/12/22 00:30:19;;;;;;;9.13;1.75;;;4.40;99.90;;;;;;5016182;28;20034;-64
2023/12/22 00:32:44;;;;;;;8.70;2.00;;;4.30;99.90;;;;;;5016708;28;20035;-62
2023/12/22 00:35:10;;;;;;;7.90;1.50;;;4.40;99.90;;;;;;5017154;28;20033;-63
2023/12/22 00:37:36;;;;;;;8.07;1.60;;;4.40;99.90;;;;;;5019615;28;20489;-63
2023/12/22 00:40:04;;;;;;;8.05;1.83;;;4.40;99.90;;;;;;5019672;28;20040;-62
2023/12/22 00:42:29;;;;;;;9.65;1.73;;;4.40;99.90;;;;;;5020199;28;20041;-63
2023/12/22 00:44:55;;;;;;;8.27;1.42;;;4.30;99.90;;;;;;5021330;28;20049;-62
2023/12/22 00:47:21;;;;;;;5.88;1.42;;;4.30;99.90;;;;;;5019405;28;20030;-62
2023/12/22 00:49:46;;;;;;;6.25;1.30;;;4.30;99.90;;;;;;5021711;28;20033;-62
2023/12/22 00:52:12;;;;;;;9.30;1.50;;;4.30;99.90;;;;;;5018586;28;20050;-62
2023/12/22 00:54:37;;;;;;;6.47;1.25;;;4.30;99.90;;;;;;5017426;28;20099;-62
2023/12/22 00:57:04;;;;;;;6.97;1.67;;;4.30;99.90;;;;;;5016507;28;20394;-62
2023/12/22 00:59:29;;;;;;;10.63;1.63;;;4.30;99.90;;;;;;5018951;28;20030;-62
2023/12/22 01:01:55;;;;;;;12.70;1.73;;;4.30;99.90;;;;;;5018916;28;20506;-62
2023/12/22 01:04:21;;;;;;;7.18;1.83;;;4.20;99.90;;;;;;5016846;28;20477;-62
2023/12/22 01:06:46;;;;;;;9.63;3.08;;;4.20;99.90;;;;;;5018535;28;20493;-62
2023/12/22 01:09:12;;;;;;;11.32;1.23;;;4.10;99.90;;;;;;5018052;28;20029;-62
2023/12/22 01:11:37;;;;;;;4.75;1.55;;;4.10;99.90;;;;;;5017783;28;20057;-62
2023/12/22 01:14:03;;;;;;;6.63;1.40;;;4.00;99.90;;;;;;5017866;28;20029;-62
2023/12/22 01:16:29;;;;;;;11.95;1.50;;;4.00;99.90;;;;;;5015394;28;20061;-62
2023/12/22 01:18:54;;;;;;;3.17;0.88;;;4.00;99.90;;;;;;5017391;28;20537;-59
2023/12/22 01:21:20;;;;;;;4.47;1.05;;;4.10;99.90;;;;;;5015785;28;20037;-63
2023/12/22 01:23:45;;;;;;;6.63;1.92;;;4.10;99.90;;;;;;5019561;28;20053;-63
2023/12/22 01:26:11;;;;;;;5.82;1.52;;;4.10;99.90;;;;;;5017228;28;20181;-64
2023/12/22 01:28:37;;;;;;;7.63;0.90;;;4.10;99.90;;;;;;5019652;28;20056;-64
2023/12/22 01:31:02;;;;;;;14.65;2.50;;;4.10;99.90;;;;;;5018993;28;20026;-62
2023/12/22 01:33:29;;;;;;;7.95;1.67;;;4.10;99.90;;;;;;5012561;28;20107;-60
2023/12/22 01:35:55;;;;;;;8.77;2.00;;;4.20;99.90;;;;;;5014904;28;20029;-62
2023/12/22 01:38:21;;;;;;;5.18;1.60;;;4.20;99.90;;;;;;5016803;28;20026;-63
2023/12/22 01:40:46;;;;;;;3.45;1.15;;;4.20;99.90;;;;;;5019236;28;20398;-62
2023/12/22 01:43:13;;;;;;;32.97;3.78;;;4.30;99.90;;;;;;5016520;28;20030;-62
2023/12/22 01:45:39;;;;;;;5.43;1.20;;;4.30;99.90;;;;;;5017992;28;20025;-63
2023/12/22 01:48:05;;;;;;;7.95;1.58;;;4.40;99.90;;;;;;5016905;28;20126;-62
2023/12/22 01:50:31;;;;;;;4.97;1.48;;;4.40;99.90;;;;;;5017350;28;20027;-62
2023/12/22 01:52:56;;;;;;;10.40;1.40;;;4.40;99.90;;;;;;5016084;28;20034;-62
2023/12/22 01:55:22;;;;;;;9.95;1.60;;;4.40;99.90;;;;;;5014143;28;20561;-62
2023/12/22 01:57:49;;;;;;;8.07;1.67;;;4.50;99.90;;;;;;5016994;28;20028;-62
2023/12/22 02:00:15;;;;;;;8.48;2.28;;;4.50;99.90;;;;;;5016098;28;20030;-62
2023/12/22 02:02:44;;;;;;;6.95;1.52;;;4.50;99.90;;;;;;5018269;28;20291;-63
2023/12/22 02:05:11;;;;;;;6.30;1.40;;;4.50;99.90;;;;;;5017697;28;20686;-62
2023/12/22 02:07:39;;;;;;;4.53;1.13;;;4.50;99.90;;;;;;5019467;28;20033;-62
2023/12/22 02:10:09;;;;;;;6.85;1.80;;;4.50;99.90;;;;;;5017692;28;20021;-62
2023/12/22 02:12:37;;;;;;;9.60;1.42;;;4.50;99.90;;;;;;5019102;28;20634;-62
2023/12/22 02:15:04;;;;;;;7.80;1.33;;;4.50;99.90;;;;;;5017498;28;20018;-63
2023/12/22 02:17:46;;;;;;;4.35;1.38;;;4.50;99.90;;;;;;5016541;28;20030;-62
2023/12/22 02:20:11;;;;;;;;;;;4.60;99.90;;;;;;5015808;28;20030;-61
2023/12/22 02:22:37;;;;;;;3.42;1.20;;;4.50;99.90;;;;;;5017544;28;19917;-64
2023/12/22 02:25:03;;;;;;;5.22;1.23;;;4.50;99.90;;;;;;5019367;28;20025;-62
2023/12/22 02:27:34;;;;;;;5.13;1.02;;;4.40;99.90;;;;;;5015359;28;20096;-62
2023/12/22 02:30:13;;;;;;;4.13;1.25;;;4.40;99.90;;;;;;5014735;28;20041;-61
2023/12/22 02:32:42;;;;;;;9.20;1.45;;;4.40;99.90;;;;;;5011287;28;20449;-62
2023/12/22 02:35:13;;;;;;;3.65;0.90;;;4.30;99.90;;;;;;5012378;28;20041;-63
2023/12/22 02:37:41;;;;;;;3.67;0.88;;;4.30;99.90;;;;;;5016483;28;20034;-63
2023/12/22 02:40:09;;;;;;;4.15;0.77;;;4.40;99.90;;;;;;5018392;28;20021;-62
2023/12/22 02:42:36;;;;;;;3.55;1.15;;;4.40;99.90;;;;;;5016465;28;20120;-62
2023/12/22 02:45:03;;;;;;;5.18;1.00;;;4.40;99.90;;;;;;5016674;28;20029;-64
2023/12/22 02:47:28;;;;;;;1.85;0.70;;;4.40;99.90;;;;;;5018484;28;20882;-62
2023/12/22 02:49:54;;;;;;;2.28;1.25;;;4.40;99.90;;;;;;5021517;28;20033;-61
2023/12/22 02:52:20;;;;;;;2.80;0.73;;;4.40;99.90;;;;;;5014008;28;20054;-62
2023/12/22 02:54:47;;;;;;;3.38;0.77;;;4.40;99.90;;;;;;5017812;28;20036;-63
2023/12/22 02:57:13;;;;;;;3.28;0.70;;;4.40;99.90;;;;;;5016812;28;20057;-63
2023/12/22 02:59:38;;;;;;;2.63;0.80;;;4.40;99.90;;;;;;5016642;28;20069;-63
2023/12/22 03:02:04;;;;;;;2.90;0.77;;;4.40;99.90;;;;;;5017501;28;20025;-63
2023/12/22 03:04:30;;;;;;;3.35;1.65;;;4.40;99.90;;;;;;5015215;28;20026;-62
2023/12/22 03:06:56;;;;;;;4.05;1.17;;;4.40;99.90;;;;;;5011931;28;20088;-63
2023/12/22 03:09:21;;;;;;;5.13;0.90;;;4.40;99.90;;;;;;5015177;28;20505;-62
2023/12/22 03:11:48;;;;;;;2.80;0.98;;;4.40;99.90;;;;;;5017336;28;20030;-61
2023/12/22 03:14:13;;;;;;;3.30;0.80;;;4.40;99.90;;;;;;5014486;28;20069;-61
2023/12/22 03:16:40;;;;;;;3.17;1.00;;;4.50;99.90;;;;;;5015292;28;20030;-63
2023/12/22 03:19:07;;;;;;;2.78;0.80;;;4.40;99.90;;;;;;5014581;28;20494;-62
2023/12/22 03:21:32;;;;;;;2.17;0.63;;;4.40;99.90;;;;;;5015378;28;20041;-63
2023/12/22 03:23:58;;;;;;;1.15;0.60;;;4.50;99.90;;;;;;5019158;28;20030;-62
2023/12/22 03:26:26;;;;;;;5.18;0.77;;;4.50;99.90;;;;;;5019187;28;20026;-63
2023/12/22 03:28:52;;;;;;;4.82;0.90;;;4.40;99.90;;;;;;5012259;28;20025;-62
2023/12/22 03:31:17;;;;;;;3.38;0.93;;;4.40;99.90;;;;;;5013762;28;20538;-62
2023/12/22 03:33:43;;;;;;;2.17;0.40;;;4.40;99.90;;;;;;5019507;28;20021;-63
2023/12/22 03:36:09;;;;;;;2.92;0.75;;;4.30;99.90;;;;;;5018194;28;20386;-63
2023/12/22 03:38:34;;;;;;;3.88;0.70;;;4.30;99.90;;;;;;5016984;28;20596;-62
2023/12/22 03:41:00;;;;;;;3.97;1.13;;;4.30;99.90;;;;;;5017259;28;20619;-62
2023/12/22 03:43:26;;;;;;;5.45;0.90;;;4.30;99.90;;;;;;5015383;28;20045;-62
2023/12/22 03:45:51;;;;;;;2.13;0.80;;;4.30;99.90;;;;;;5016568;28;20026;-63
2023/12/22 03:48:17;;;;;;;4.47;1.08;;;4.30;99.90;;;;;;5022026;28;20453;-62
2023/12/22 03:50:43;;;;;;;2.35;0.80;;;4.30;99.90;;;;;;5019361;28;20029;-63
2023/12/22 03:53:09;;;;;;;2.45;0.90;;;4.30;99.90;;;;;;5019995;28;20034;-62
2023/12/22 03:55:34;;;;;;;1.85;0.70;;;4.30;99.90;;;;;;5025533;28;20052;-62
2023/12/22 03:58:00;;;;;;;2.38;0.75;;;4.30;99.90;;;;;;5006433;28;20017;-62
2023/12/22 04:00:26;;;;;;;2.33;0.70;;;4.30;99.90;;;;;;5022105;28;20041;-62
2023/12/22 04:02:52;;;;;;;2.08;0.55;;;4.30;99.90;;;;;;5004167;28;20040;-62
2023/12/22 04:05:17;;;;;;;2.58;0.93;;;4.30;99.90;;;;;;5018652;28;20101;-62
2023/12/22 04:07:43;;;;;;;5.25;1.20;;;4.40;99.90;;;;;;5022041;28;20055;-62
2023/12/22 04:10:09;;;;;;;8.68;2.80;;;4.30;99.90;;;;;;5021416;28;20071;-63
2023/12/22 04:12:35;;;;;;;4.50;1.90;;;4.30;99.90;;;;;;5022388;28;20034;-62
2023/12/22 04:15:00;;;;;;;2.47;0.60;;;4.30;99.90;;;;;;5019484;28;20029;-62
2023/12/22 04:17:26;;;;;;;3.50;0.73;;;4.30;99.90;;;;;;5002947;28;20028;-62
2023/12/22 04:19:52;;;;;;;2.08;0.90;;;4.20;99.90;;;;;;5018239;28;20049;-62
2023/12/22 04:22:18;;;;;;;2.58;0.98;;;4.20;99.90;;;;;;5018781;28;20100;-62
2023/12/22 04:24:43;;;;;;;3.78;1.23;;;4.20;99.90;;;;;;5018294;28;20109;-62
2023/12/22 04:27:09;;;;;;;3.30;0.70;;;4.20;99.90;;;;;;5017561;28;20144;-63
2023/12/22 04:29:35;;;;;;;3.00;0.80;;;4.20;99.90;;;;;;5023036;28;20026;-62
2023/12/22 04:32:00;;;;;;;2.53;0.68;;;4.20;99.90;;;;;;5018913;28;20044;-62
2023/12/22 04:34:26;;;;;;;1.58;0.57;;;4.20;99.90;;;;;;5018319;28;20025;-63
2023/12/22 04:36:51;;;;;;;3.65;0.73;;;4.20;99.90;;;;;;5019234;28;20131;-62
2023/12/22 04:39:17;;;;;;;2.85;0.60;;;4.20;99.90;;;;;;5018421;28;20505;-62
2023/12/22 04:41:43;;;;;;;3.80;1.27;;;4.20;99.90;;;;;;5019399;28;20028;-63
2023/12/22 04:44:08;;;;;;;2.78;0.70;;;4.30;99.90;;;;;;5020964;28;20478;-61
2023/12/22 04:46:34;;;;;;;3.33;1.73;;;4.30;99.90;;;;;;5019537;28;20026;-61
2023/12/22 04:49:00;;;;;;;3.03;1.08;;;4.30;99.90;;;;;;5019316;28;20441;-62
2023/12/22 04:51:25;;;;;;;3.47;0.68;;;4.30;99.90;;;;;;5018337;28;20036;-62
2023/12/22 04:53:51;;;;;;;3.25;0.95;;;4.30;99.90;;;;;;5017211;28;20099;-62
2023/12/22 04:56:16;;;;;;;3.00;0.52;;;4.30;99.90;;;;;;5017515;28;20052;-62
2023/12/22 04:58:42;;;;;;;6.50;1.40;;;4.30;99.90;;;;;;5020159;28;20033;-62
2023/12/22 05:01:08;;;;;;;2.85;0.70;;;4.30;99.90;;;;;;5017812;28;20014;-62
2023/12/22 05:03:33;;;;;;;2.10;0.95;;;4.30;99.90;;;;;;5021081;28;20136;-61
2023/12/22 05:05:59;;;;;;;4.10;0.70;;;4.30;99.90;;;;;;5016589;28;20022;-61
2023/12/22 05:08:25;;;;;;;4.85;1.30;;;4.30;99.90;;;;;;5017766;28;20022;-62
2023/12/22 05:10:50;;;;;;;2.60;0.60;;;4.20;99.90;;;;;;5015689;28;20108;-63
2023/12/22 05:13:16;;;;;;;2.55;0.68;;;4.20;99.90;;;;;;5017705;28;20036;-63
2023/12/22 05:15:41;;;;;;;3.90;0.60;;;4.30;99.90;;;;;;5018641;28;20070;-62
2023/12/22 05:18:08;;;;;;;2.05;0.70;;;4.30;99.90;;;;;;5017268;28;20105;-62
2023/12/22 05:20:34;;;;;;;3.50;0.60;;;4.30;99.90;;;;;;5016793;28;20645;-62
2023/12/22 05:23:00;;;;;;;7.70;0.95;;;4.30;99.90;;;;;;5017403;28;20113;-61
2023/12/22 05:25:26;;;;;;;54.95;31.73;;;4.30;99.90;;;;;;5018661;28;20512;-62
2023/12/22 05:27:51;;;;;;;4.88;4.38;;;4.30;99.90;;;;;;5017216;28;20374;-63
2023/12/22 05:30:17;;;;;;;4.93;3.10;;;4.30;99.90;;;;;;5018879;28;20030;-62
2023/12/22 05:32:44;;;;;;;2.25;1.63;;;4.30;99.90;;;;;;5018074;28;20037;-61
2023/12/22 05:35:10;;;;;;;11.02;8.35;;;4.30;99.90;;;;;;5017732;28;20041;-62
2023/12/22 05:37:36;;;;;;;3.92;1.10;;;4.30;99.90;;;;;;5015769;28;20036;-61
2023/12/22 05:40:02;;;;;;;1.50;0.50;;;4.30;99.90;;;;;;5015833;28;20022;-60
2023/12/22 05:42:27;;;;;;;7.82;0.88;;;4.30;99.90;;;;;;5017214;28;20168;-62
2023/12/22 05:44:53;;;;;;;3.05;0.60;;;4.30;99.90;;;;;;5016716;28;20112;-62
2023/12/22 05:47:19;;;;;;;5.47;0.73;;;4.30;99.90;;;;;;5015804;28;20038;-64
2023/12/22 05:49:45;;;;;;;4.53;2.03;;;4.20;99.90;;;;;;5017782;28;20026;-62
2023/12/22 05:52:12;;;;;;;2.70;0.80;;;4.20;99.90;;;;;;5015566;28;20512;-61
2023/12/22 05:54:38;;;;;;;3.45;0.57;;;4.10;99.90;;;;;;5017062;28;20521;-62
2023/12/22 05:57:06;;;;;;;2.47;0.60;;;4.10;99.90;;;;;;5013612;28;20044;-62
2023/12/22 05:59:34;;;;;;;8.75;1.10;;;4.10;99.90;;;;;;5014005;28;20045;-63
2023/12/22 06:02:01;;;;;;;1.73;0.75;;;4.10;99.90;;;;;;5015883;28;20084;-62
2023/12/22 06:04:28;;;;;;;3.60;0.57;;;4.00;99.90;;;;;;5014191;28;20042;-62
2023/12/22 06:06:54;;;;;;;2.08;0.60;;;4.00;99.90;;;;;;5016089;28;20033;-61
2023/12/22 06:09:21;;;;;;;1.92;0.50;;;4.00;99.90;;;;;;5020331;28;20064;-62
2023/12/22 06:11:48;;;;;;;1.85;0.60;;;4.00;99.90;;;;;;5015477;28;20580;-62
2023/12/22 06:14:13;;;;;;;4.40;0.70;;;4.00;99.90;;;;;;5017684;28;20038;-62
2023/12/22 06:16:39;;;;;;;1.95;0.50;;;4.00;99.90;;;;;;5016086;28;20486;-62
2023/12/22 06:19:05;;;;;;;1.30;0.30;;;4.00;99.90;;;;;;5018177;28;20038;-60
2023/12/22 06:21:30;;;;;;;2.25;0.70;;;4.00;99.90;;;;;;5018107;28;20478;-64
2023/12/22 06:23:56;;;;;;;1.75;0.45;;;4.00;99.90;;;;;;5015651;28;20036;-62
2023/12/22 06:26:22;;;;;;;4.05;0.90;;;4.00;99.90;;;;;;5014689;28;20030;-62
2023/12/22 06:28:47;;;;;;;2.13;0.50;;;4.00;99.90;;;;;;5017020;28;20026;-61
2023/12/22 06:31:20;;;;;;;2.28;0.50;;;4.00;99.90;;;;;;5013452;28;20497;-62
2023/12/22 06:33:47;;;;;;;2.15;0.50;;;4.00;99.90;;;;;;5016082;28;20018;-63
2023/12/22 06:36:19;;;;;;;2.65;0.70;;;4.00;99.90;;;;;;5017018;28;20038;-61
2023/12/22 06:38:44;;;;;;;2.35;0.93;;;4.00;99.90;;;;;;5017393;28;20060;-61
2023/12/22 06:41:22;;;;;;;0.65;0.50;;;4.00;99.90;;;;;;5017235;28;20057;-61
2023/12/22 06:43:48;;;;;;;3.80;1.10;;;4.00;99.90;;;;;;5013471;28;20042;-60
2023/12/22 06:46:18;;;;;;;3.15;0.43;;;4.00;99.90;;;;;;5016453;28;20035;-62
2023/12/22 06:48:44;;;;;;;1.63;0.70;;;4.00;99.90;;;;;;5014020;28;20018;-62
2023/12/22 06:51:19;;;;;;;1.88;0.50;;;4.00;99.90;;;;;;5013845;28;20473;-61
2023/12/22 06:53:45;;;;;;;1.55;0.70;;;3.90;99.90;;;;;;5020105;28;20037;-61
2023/12/22 06:56:27;;;;;;;4.10;0.60;;;3.90;99.90;;;;;;5020825;28;20404;-63
2023/12/22 06:58:56;;;;;;;0.50;0.50;;;3.90;99.90;;;;;;5019301;28;20020;-62
2023/12/22 07:01:23;;;;;;;1.42;0.90;;;3.90;99.90;;;;;;5019029;28;20021;-62
2023/12/22 07:03:50;;;;;;;1.48;0.40;;;4.00;99.90;;;;;;5023263;28;20029;-60
2023/12/22 07:06:17;;;;;;;1.30;0.45;;;4.00;99.90;;;;;;5020978;28;20039;-62
2023/12/22 07:08:43;;;;;;;5.15;0.63;;;4.00;99.90;;;;;;5018839;28;20425;-61
2023/12/22 07:11:09;;;;;;;8.65;1.60;;;4.00;99.90;;;;;;5020588;28;20025;-61
2023/12/22 07:13:35;;;;;;;3.17;0.73;;;4.00;99.90;;;;;;5023101;28;20052;-61
2023/12/22 07:16:02;;;;;;;3.08;0.95;;;4.00;99.90;;;;;;5021651;28;20373;-61
2023/12/22 07:18:30;;;;;;;2.35;0.60;;;4.00;99.90;;;;;;5020732;28;20025;-60
2023/12/22 07:20:57;;;;;;;1.10;1.00;;;4.10;99.90;;;;;;5020851;28;20061;-61
2023/12/22 07:23:23;;;;;;;1.83;0.50;;;4.20;99.90;;;;;;5020122;28;20037;-62
2023/12/22 07:25:48;;;;;;;3.22;0.57;;;4.20;99.90;;;;;;5017636;28;20509;-61
2023/12/22 07:28:15;;;;;;;2.67;0.47;;;4.20;99.90;;;;;;5019987;28;20056;-61
2023/12/22 07:30:41;;;;;;;1.58;0.50;;;4.10;99.90;;;;;;5018476;28;20361;-60
2023/12/22 07:33:06;;;;;;;1.15;0.38;;;4.10;99.90;;;;;;5023608;28;20022;-61
2023/12/22 07:35:32;;;;;;;4.10;1.08;;;4.00;99.90;;;;;;5023582;28;20068;-61
2023/12/22 07:37:58;;;;;;;1.70;0.40;;;4.00;99.90;;;;;;5024179;28;20026;-61
2023/12/22 07:40:23;;;;;;;2.65;0.45;;;4.00;99.90;;;;;;5020644;28;20088;-61
2023/12/22 07:42:50;;;;;;;0.80;0.40;;;4.00;99.90;;;;;;5025216;28;20021;-61
2023/12/22 07:45:16;;;;;;;1.50;0.57;;;4.00;99.90;;;;;;5022510;28;20121;-60
2023/12/22 07:47:42;;;;;;;4.68;0.75;;;4.00;99.90;;;;;;5023277;28;20121;-61
2023/12/22 07:50:08;;;;;;;1.63;0.43;;;4.00;99.90;;;;;;5021623;28;20046;-62
2023/12/22 07:52:38;;;;;;;1.25;0.50;;;4.00;99.90;;;;;;5023749;28;20640;-61
2023/12/22 07:55:11;;;;;;;3.00;0.43;;;4.00;99.90;;;;;;5022761;28;20031;-62
2023/12/22 07:57:37;;;;;;;1.83;0.40;;;4.00;99.90;;;;;;5023996;28;20037;-60
2023/12/22 08:00:04;;;;;;;1.95;0.60;;;4.10;99.90;;;;;;5021405;28;20030;-61
2023/12/22 08:02:30;;;;;;;5.65;0.63;;;4.10;99.90;;;;;;5018831;28;20053;-62
2023/12/22 08:04:55;;;;;;;3.25;0.40;;;4.20;99.90;;;;;;5018431;28;20441;-63
2023/12/22 08:07:21;;;;;;;2.20;0.60;;;4.30;99.90;;;;;;5019397;28;20025;-62
2023/12/22 08:09:47;;;;;;;3.35;0.50;;;4.40;99.90;;;;;;5024495;28;20006;-62
2023/12/22 08:12:12;;;;;;;2.22;0.45;;;4.50;99.90;;;;;;5023112;28;20032;-62
2023/12/22 08:14:38;;;;;;;1.08;0.45;;;4.50;99.90;;;;;;5020085;28;20494;-63
2023/12/22 08:17:04;;;;;;;1.10;0.50;;;4.50;99.90;;;;;;5020775;28;20083;-61
2023/12/22 08:19:29;;;;;;;1.15;0.43;;;4.50;99.90;;;;;;5019673;28;20084;-60
2023/12/22 08:21:55;;;;;;;0.85;0.50;;;4.50;99.90;;;;;;5017596;28;20498;-62
2023/12/22 08:24:21;;;;;;;1.58;0.60;;;4.60;99.90;;;;;;5023332;28;20385;-61
2023/12/22 08:26:47;;;;;;;0.80;0.38;;;4.60;99.90;;;;;;5015520;28;20029;-61
2023/12/22 08:29:13;;;;;;;2.42;0.60;;;4.60;99.90;;;;;;5018963;28;20079;-61
2023/12/22 08:31:39;;;;;;;2.67;0.50;;;4.60;99.90;;;;;;5016998;28;20037;-61
2023/12/22 08:34:05;;;;;;;1.98;0.50;;;4.60;99.90;;;;;;5019123;28;20041;-62
2023/12/22 08:36:31;;;;;;;2.33;0.55;;;4.60;99.90;;;;;;5019866;28;20848;-61
2023/12/22 08:38:57;;;;;;;3.75;0.70;;;4.60;99.90;;;;;;5019019;28;20075;-61
2023/12/22 08:41:23;;;;;;;4.00;0.60;;;4.60;99.90;;;;;;5016808;28;20048;-63
2023/12/22 08:43:48;;;;;;;1.10;0.63;;;4.60;99.90;;;;;;5019767;28;20038;-61
2023/12/22 08:46:14;;;;;;;2.03;0.60;;;4.60;99.90;;;;;;5017315;28;20101;-61
2023/12/22 08:48:40;;;;;;;2.75;0.73;;;4.60;99.90;;;;;;5019772;28;20789;-62
2023/12/22 08:51:06;;;;;;;1.15;0.50;;;4.60;99.90;;;;;;5019891;28;20030;-61
2023/12/22 08:53:36;;;;;;;5.70;1.20;;;4.60;99.90;;;;;;5019399;28;20021;-62
2023/12/22 08:56:02;;;;;;;1.75;0.50;;;4.70;99.90;;;;;;5016843;28;20576;-62
2023/12/22 08:58:28;;;;;;;7.28;0.70;;;4.70;99.90;;;;;;5017588;28;20109;-61
2023/12/22 09:00:54;;;;;;;2.15;0.50;;;4.70;99.90;;;;;;5019285;28;20108;-60
2023/12/22 09:03:20;;;;;;;6.43;0.90;;;4.70;99.90;;;;;;5018997;28;20029;-62
2023/12/22 09:05:46;;;;;;;1.65;0.47;;;4.80;99.90;;;;;;5017760;28;20033;-61
2023/12/22 09:08:12;;;;;;;1.52;0.82;;;4.80;99.90;;;;;;5017733;28;20014;-61
2023/12/22 09:10:38;;;;;;;4.55;1.52;;;4.80;99.90;;;;;;5022819;28;20029;-62
2023/12/22 09:13:04;;;;;;;4.07;0.70;;;4.80;99.90;;;;;;5021586;28;20083;-62
2023/12/22 09:15:29;;;;;;;4.97;1.27;;;4.80;99.90;;;;;;5019104;28;20030;-61
2023/12/22 09:17:55;;;;;;;4.57;0.70;;;4.90;99.90;;;;;;5019459;28;20033;-61
2023/12/22 09:20:22;;;;;;;4.80;0.60;;;4.90;99.90;;;;;;5018150;28;20029;-62
2023/12/22 09:22:47;;;;;;;1.77;0.52;;;4.90;99.90;;;;;;5020977;28;20025;-61
2023/12/22 09:25:13;;;;;;;3.58;0.77;;;4.90;99.90;;;;;;5021688;28;20052;-62
2023/12/22 09:27:39;;;;;;;2.97;0.73;;;4.90;99.90;;;;;;5017262;28;20433;-62
2023/12/22 09:30:08;;;;;;;2.75;0.95;;;5.00;99.90;;;;;;5017555;28;20022;-62
2023/12/22 09:32:34;;;;;;;2.20;0.60;;;5.00;99.90;;;;;;5017550;28;20073;-62
2023/12/22 09:35:00;;;;;;;7.65;1.00;;;5.10;99.90;;;;;;5018665;28;20562;-62
2023/12/22 09:37:26;;;;;;;1.58;0.60;;;5.20;99.90;;;;;;5018076;28;20033;-61
2023/12/22 09:39:52;;;;;;;3.45;1.40;;;5.20;99.90;;;;;;5019738;28;20398;-60
2023/12/22 09:42:18;;;;;;;2.53;0.75;;;5.30;99.90;;;;;;5016738;28;20105;-62
2023/12/22 09:44:45;;;;;;;2.58;0.70;;;5.30;99.90;;;;;;5016741;28;20508;-63
2023/12/22 09:47:13;;;;;;;4.43;0.73;;;5.40;99.90;;;;;;5017645;28;20027;-61
2023/12/22 09:49:40;;;;;;;3.28;0.95;;;5.40;99.90;;;;;;5020205;28;20034;-62
2023/12/22 09:52:07;;;;;;;3.17;1.33;;;5.40;99.90;;;;;;5017608;28;20583;-61
2023/12/22 09:54:33;;;;;;;4.38;2.65;;;5.40;99.90;;;;;;5018201;28;20030;-62
2023/12/22 09:57:00;;;;;;;5.32;2.22;;;5.40;99.90;;;;;;5018014;28;20030;-62
2023/12/22 09:59:28;;;;;;;4.88;1.48;;;5.40;99.90;;;;;;5019930;28;20559;-62
2023/12/22 10:01:55;;;;;;;5.07;1.10;;;5.40;99.90;;;;;;5012370;28;20041;-61
2023/12/22 10:04:21;;;;;;;2.22;0.98;;;5.50;99.90;;;;;;5017760;28;20029;-62
2023/12/22 10:06:48;;;;;;;3.63;0.82;;;5.50;99.90;;;;;;5015958;28;20033;-61
2023/12/22 10:09:16;;;;;;;5.72;1.00;;;5.50;99.90;;;;;;5017197;28;20079;-61
2023/12/22 10:11:43;;;;;;;3.33;0.63;;;5.50;99.90;;;;;;5015474;28;20033;-62
2023/12/22 10:14:10;;;;;;;3.15;0.73;;;5.40;99.90;;;;;;5016760;28;20026;-62
2023/12/22 10:16:36;;;;;;;3.55;2.70;;;5.50;99.90;;;;;;5016495;28;20039;-61
2023/12/22 10:19:03;;;;;;;4.57;0.70;;;5.50;99.90;;;;;;5015732;28;20013;-61
2023/12/22 10:21:30;;;;;;;4.45;1.35;;;5.50;99.90;;;;;;5015827;28;20029;-61
2023/12/22 10:23:56;;;;;;;3.63;0.82;;;5.50;99.90;;;;;;5017950;28;20029;-61
2023/12/22 10:26:22;;;;;;;5.25;1.00;;;5.50;99.90;;;;;;5019083;28;20070;-61
2023/12/22 10:28:51;;;;;;;2.45;0.65;;;5.50;99.90;;;;;;5017769;28;20021;-61
2023/12/22 10:31:17;;;;;;;1.52;0.60;;;5.50;99.90;;;;;;5014599;28;20029;-61
2023/12/22 10:33:44;;;;;;;4.40;0.80;;;5.50;99.90;;;;;;5017718;28;20037;-61
2023/12/22 10:36:10;;;;;;;2.22;0.85;;;5.50;99.90;;;;;;5015305;28;20029;-61
2023/12/22 10:38:35;;;;;;;4.32;0.70;;;5.50;99.90;;;;;;5015611;28;20037;-62
2023/12/22 10:41:02;;;;;;;2.20;0.80;;;5.40;99.90;;;;;;5019949;28;20080;-61
2023/12/22 10:43:29;;;;;;;3.35;0.70;;;5.40;99.90;;;;;;5017156;28;20037;-62
2023/12/22 10:45:55;;;;;;;4.72;0.80;;;5.40;99.90;;;;;;5013733;28;20018;-61
2023/12/22 10:48:22;;;;;;;2.33;0.77;;;5.40;99.90;;;;;;5016184;28;20029;-62
2023/12/22 10:50:48;;;;;;;2.63;0.85;;;5.40;99.90;;;;;;5014920;28;20028;-62
2023/12/22 10:53:14;;;;;;;4.47;1.15;;;5.30;99.90;;;;;;5015376;28;20025;-62
2023/12/22 10:55:40;;;;;;;2.05;0.70;;;5.20;99.90;;;;;;5016807;28;20038;-62
2023/12/22 10:58:06;;;;;;;2.00;1.55;;;5.20;99.90;;;;;;5015802;28;20030;-61
2023/12/22 11:00:40;;;;;;;6.45;0.75;;;5.10;99.90;;;;;;5016929;28;20424;-61
2023/12/22 11:03:08;;;;;;;3.65;1.15;;;5.10;99.90;;;;;;5016552;28;20038;-63
2023/12/22 11:05:36;;;;;;;3.63;0.68;;;5.00;99.90;;;;;;5016729;28;20093;-61
2023/12/22 11:08:08;;;;;;;3.40;0.80;;;5.00;99.90;;;;;;5017823;28;20409;-62
2023/12/22 11:10:36;;;;;;;4.13;0.85;;;4.90;99.90;;;;;;5016657;28;20034;-62
2023/12/22 11:13:03;;;;;;;2.92;0.93;;;4.80;99.90;;;;;;5019514;28;20033;-62
2023/12/22 11:15:29;;;;;;;10.27;2.00;;;4.70;99.90;;;;;;5018230;28;20033;-63
2023/12/22 11:17:57;;;;;;;3.88;0.90;;;4.60;99.90;;;;;;5016911;28;20022;-65
2023/12/22 11:20:25;;;;;;;5.97;2.55;;;4.50;99.90;;;;;;5017577;28;20113;-64
2023/12/22 11:22:52;;;;;;;3.50;0.90;;;4.30;99.90;;;;;;5016802;28;20022;-63
2023/12/22 11:25:18;;;;;;;4.47;2.28;;;4.20;99.90;;;;;;5013877;28;20010;-63
2023/12/22 11:27:46;;;;;;;2.03;1.00;;;4.10;99.90;;;;;;5016337;28;20021;-63
2023/12/22 11:30:13;;;;;;;4.20;1.00;;;4.00;99.90;;;;;;5014472;28;20037;-62
2023/12/22 11:32:39;;;;;;;8.32;2.22;;;4.00;99.90;;;;;;5016409;28;20029;-64
2023/12/22 11:35:07;;;;;;;7.50;1.75;;;3.90;99.90;;;;;;5011701;28;20080;-63
2023/12/22 11:37:36;;;;;;;4.63;1.30;;;3.90;99.90;;;;;;5013469;28;20462;-62
2023/12/22 11:40:03;;;;;;;12.48;1.80;;;3.90;99.90;;;;;;5019889;28;20021;-63
2023/12/22 11:42:32;;;;;;;6.80;1.77;;;3.90;99.90;;;;;;5014847;28;20119;-64
2023/12/22 11:44:58;;;;;;;7.40;2.35;;;3.90;99.90;;;;;;5017133;28;20137;-65
2023/12/22 11:47:25;;;;;;;4.95;1.17;;;4.00;99.90;;;;;;5015435;28;20048;-63
2023/12/22 11:49:51;;;;;;;3.90;1.60;;;4.00;99.90;;;;;;5013691;28;20172;-65
2023/12/22 11:52:18;;;;;;;4.90;2.10;;;4.00;99.90;;;;;;5015190;28;20525;-65
2023/12/22 11:54:49;;;;;;;12.40;6.30;;;4.00;99.90;;;;;;5019286;28;20033;-64
2023/12/22 11:57:27;;;;;;;7.22;2.40;;;4.00;99.90;;;;;;5013531;28;20044;-64
2023/12/22 11:59:53;;;;;;;7.22;2.30;;;4.10;99.90;;;;;;5015051;28;20026;-63
2023/12/22 12:02:18;;;;;;;11.23;4.20;;;4.10;99.90;;;;;;5016273;28;20032;-63
2023/12/22 12:04:47;;;;;;;9.30;4.50;;;4.20;99.90;;;;;;5015725;28;20037;-63
2023/12/22 12:07:50;;;;;;;8.15;3.50;;;4.20;99.90;;;;;;5014546;28;20026;-63
2023/12/22 12:10:35;;;;;;;4.57;1.25;;;4.20;99.90;;;;;;5020786;28;20033;-63
2023/12/22 12:13:08;;;;;;;6.32;2.63;;;3.90;99.90;;;;;;5018719;28;20024;-62
2023/12/22 12:15:34;;;;;;;8.50;3.55;;;3.70;99.90;;;;;;5022319;28;20037;-63
2023/12/22 12:18:01;;;;;;;6.63;3.97;;;3.60;99.90;;;;;;5022390;28;20022;-63
2023/12/22 12:20:27;;;;;;;9.65;4.85;;;3.50;99.90;;;;;;5019874;28;20049;-62
2023/12/22 12:22:53;;;;;;;5.07;3.03;;;3.50;99.90;;;;;;5022104;28;20049;-63
2023/12/22 12:25:29;;;;;;;4.15;2.00;;;3.50;99.90;;;;;;5021351;28;20545;-62
2023/12/22 12:28:11;;;;;;;3.03;2.42;;;3.40;99.90;;;;;;5020979;28;20032;-62
2023/12/22 12:30:38;;;;;;;4.00;1.88;;;3.40;99.90;;;;;;5019588;28;20052;-63
2023/12/22 12:33:07;;;;;;;3.47;1.00;;;3.40;99.90;;;;;;5021940;28;20560;-62
2023/12/22 12:35:33;;;;;;;3.95;1.45;;;3.40;99.90;;;;;;5019620;28;20049;-63
2023/12/22 12:38:06;;;;;;;5.35;2.42;;;3.40;99.90;;;;;;5018098;28;20034;-62
2023/12/22 12:40:35;;;;;;;3.25;1.10;;;3.50;99.90;;;;;;5019513;28;20083;-62
2023/12/22 12:43:02;;;;;;;2.33;0.90;;;3.50;99.90;;;;;;5020400;28;20026;-63
2023/12/22 12:45:28;;;;;;;4.30;1.42;;;3.50;99.90;;;;;;5017797;28;20053;-62
2023/12/22 12:48:01;;;;;;;6.20;2.63;;;3.50;99.90;;;;;;5019455;28;20063;-62
2023/12/22 12:50:28;;;;;;;6.45;2.47;;;3.50;99.90;;;;;;5017904;28;20025;-64
2023/12/22 12:52:55;;;;;;;2.05;1.10;;;3.60;99.90;;;;;;5018378;28;20389;-63
2023/12/22 12:55:21;;;;;;;6.22;1.60;;;3.60;99.90;;;;;;5019401;28;20021;-63